South Pasadena, Florida
Current Conditions -  °F | °C
As of 4:53 AM on Tuesday 21 Oct 2014 (Local Time) from KSPG Reporting Station
Clear Clear  
Wind Chill: 75°   Ceiling: Unl
Heat Index: 75°   Visibility: 10mi
Dew Point: 67°   Wind: 0mph
Humidity: 76%   Direction: NA
Pressure: 29.91"   Gusts: NA
Location:  27.7562°N, 82.7184°W
Report Text: KSPG 210853Z AUTO 00000KT 10SM CLR 24/19 A2991 RMK AO2 SLP128 T02390194 55008
Loading
Personal Weather Stations






























Interactive Weather Map
Tropical Storm Tracking
New forecast layout! Learn more

10-Day Weather Forecast

Advertisements
Track Severe Weather on mobile